< < Back
Terminal Aerodrome Forecast


Current Version              Previous Versions:   1  2  3  4  5  6  7  8  9  

Terminal Aerodrome Forecast

722
FTUS42 KILM 051720
TAFFLO
TAF
KFLO 051720Z 0518/0618 11006KT P6SM FEW040 FEW250
     FM060100 VRB03KT P6SM SCT250
     FM061400 07007KT P6SM FEW040 BKN250=

Latest METAR

209
SAUS70 KWBC 052100 RRC
MTRFLO
METAR KFLO 052053Z 16010G15KT 10SM SCT065 28/11 A3024 RMK AO2 SLP238
T02780106 58022


USA.gov is the U.S. government's official web portal to all federal, state and local government web resources and services.